Time,TemperatureF,DewpointF,PressureIn,WindDirection,WindDirectionDegrees,WindSpeedMPH,WindSpeedGustMPH,Humidity,HourlyPrecipIn,Conditions,Clouds,dailyrainin,SolarRadiationWatts/m^2,SoftwareType,DateUTC
2013-09-06 00:00:00,75.1,64.2,29.81,SE,144,4.6,4.6,69,0.00,BKN,SKC,0.00,0.0,WeatherDisplay:10.37,2013-09-05 22:00:00,
2013-09-06 00:06:00,75.0,64.1,29.81,SE,144,5.8,5.8,69,0.00,BKN,SKC,0.00,0.0,WeatherDisplay:10.37,2013-09-05 22:06:00,
2013-09-06 00:11:00,75.1,63.8,29.81,SE,144,4.0,4.0,68,0.00,BKN,SKC,0.00,0.0,WeatherDisplay:10.37,2013-09-05 22:11:00,
2013-09-06 00:16:00,75.0,63.7,29.81,SE,144,3.5,3.5,68,0.00,BKN,SKC,0.00,0.0,WeatherDisplay:10.37,2013-09-05 22:16:00,
2013-09-06 00:21:00,74.9,63.6,29.81,SE,144,3.5,3.5,68,0.00,BKN,SKC,0.00,0.0,WeatherDisplay:10.37,2013-09-05 22:21:00,
2013-09-06 00:26:00,74.9,63.6,29.81,SE,144,3.5,3.5,68,0.00,BKN,SKC,0.00,0.0,WeatherDisplay:10.37,2013-09-05 22:26:00,
2013-09-06 00:31:00,74.9,63.6,29.81,SE,144,3.5,3.5,68,0.00,BKN,SKC,0.00,0.0,WeatherDisplay:10.37,2013-09-05 22:31:00,
2013-09-06 00:36:00,74.9,63.6,29.81,SE,144,2.3,2.3,68,0.00,BKN,SKC,0.00,0.0,WeatherDisplay:10.37,2013-09-05 22:36:00,
2013-09-06 00:41:00,74.9,63.6,29.81,SE,144,3.5,3.5,68,0.00,BKN,SKC,0.00,0.0,WeatherDisplay:10.37,2013-09-05 22:41:00,
2013-09-06 00:46:00,75.0,63.7,29.81,SE,144,3.5,3.5,68,0.00,BKN,SKC,0.00,0.0,WeatherDisplay:10.37,2013-09-05 22:46:00,
2013-09-06 00:51:00,74.8,63.5,29.81,SE,144,3.5,3.5,68,0.00,BKN,SKC,0.00,0.0,WeatherDisplay:10.37,2013-09-05 22:51:00,
2013-09-06 00:56:00,74.7,63.4,29.81,SE,144,3.5,3.5,68,0.00,BKN,SKC,0.00,0.0,WeatherDisplay:10.37,2013-09-05 22:56:00,
2013-09-06 01:01:00,74.6,63.3,29.81,SE,144,2.3,2.3,68,0.00,BKN,SKC,0.00,0.0,WeatherDisplay:10.37,2013-09-05 23:01:00,
2013-09-06 01:06:00,74.4,63.6,29.80,SE,144,3.5,3.5,69,0.00,BKN,SKC,0.00,0.0,WeatherDisplay:10.37,2013-09-05 23:06:00,
2013-09-06 01:11:00,74.4,63.1,29.80,SE,144,3.5,3.5,68,0.00,BKN,SKC,0.00,0.0,WeatherDisplay:10.37,2013-09-05 23:11:00,
2013-09-06 01:16:00,74.4,63.1,29.80,SE,144,3.5,3.5,68,0.00,BKN,SKC,0.00,0.0,WeatherDisplay:10.37,2013-09-05 23:16:00,
2013-09-06 01:21:00,74.6,63.3,29.80,SE,144,3.5,3.5,68,0.00,BKN,SKC,0.00,0.0,WeatherDisplay:10.37,2013-09-05 23:21:00,
2013-09-06 01:26:00,74.4,63.1,29.80,SE,144,3.5,3.5,68,0.00,BKN,SKC,0.00,0.0,WeatherDisplay:10.37,2013-09-05 23:26:00,
2013-09-06 01:31:00,74.2,63.0,29.80,SE,144,4.0,4.0,68,0.00,BKN,SKC,0.00,0.0,WeatherDisplay:10.37,2013-09-05 23:31:00,
2013-09-06 01:36:00,74.0,63.2,29.79,SE,144,3.5,3.5,69,0.00,BKN,SKC,0.00,0.0,WeatherDisplay:10.37,2013-09-05 23:36:00,
2013-09-06 01:41:00,73.9,63.1,29.79,SE,144,3.5,3.5,69,0.00,BKN,SKC,0.00,0.0,WeatherDisplay:10.37,2013-09-05 23:41:00,
2013-09-06 01:46:00,73.9,63.1,29.79,SE,144,3.5,3.5,69,0.00,BKN,SKC,0.00,0.0,WeatherDisplay:10.37,2013-09-05 23:46:00,
2013-09-06 01:51:00,73.9,63.1,29.78,SE,144,3.5,3.5,69,0.00,BKN,SKC,0.00,0.0,WeatherDisplay:10.37,2013-09-05 23:51:00,
2013-09-06 01:56:00,73.9,63.1,29.78,SE,144,3.5,3.5,69,0.00,BKN,SKC,0.00,0.0,WeatherDisplay:10.37,2013-09-05 23:56:00,
2013-09-06 02:01:00,73.9,63.1,29.78,SE,144,3.5,3.5,69,0.00,BKN,SKC,0.00,0.0,WeatherDisplay:10.37,2013-09-06 00:01:00,
2013-09-06 02:06:00,73.9,63.1,29.78,SE,144,3.5,3.5,69,0.00,BKN,SKC,0.00,0.0,WeatherDisplay:10.37,2013-09-06 00:06:00,
2013-09-06 02:11:00,73.7,62.9,29.78,SE,144,4.6,4.6,69,0.00,BKN,SKC,0.00,0.0,WeatherDisplay:10.37,2013-09-06 00:11:00,
2013-09-06 02:16:00,73.5,62.7,29.78,SE,144,3.5,3.5,69,0.00,BKN,SKC,0.00,0.0,WeatherDisplay:10.37,2013-09-06 00:16:00,
2013-09-06 02:21:00,73.3,62.9,29.78,SE,144,2.3,2.3,70,0.00,BKN,SKC,0.00,0.0,WeatherDisplay:10.37,2013-09-06 00:21:00,
2013-09-06 02:26:00,73.1,62.7,29.78,SE,144,3.5,3.5,70,0.00,BKN,SKC,0.00,0.0,WeatherDisplay:10.37,2013-09-06 00:26:00,
2013-09-06 02:31:00,73.0,62.6,29.78,SE,144,2.3,2.3,70,0.00,BKN,SKC,0.00,0.0,WeatherDisplay:10.37,2013-09-06 00:31:00,
2013-09-06 02:36:00,72.8,62.8,29.78,SE,144,1.2,0.0,71,0.00,BKN,SKC,0.00,0.0,WeatherDisplay:10.37,2013-09-06 00:36:00,
2013-09-06 02:41:00,72.6,62.7,29.77,SE,144,0.0,0.0,71,0.00,BKN,SKC,0.00,0.0,WeatherDisplay:10.37,2013-09-06 00:41:00,
2013-09-06 02:46:00,72.5,63.0,29.77,SE,144,1.2,1.2,72,0.00,BKN,SKC,0.00,0.0,WeatherDisplay:10.37,2013-09-06 00:46:00,
2013-09-06 02:51:00,72.4,62.9,29.77,SE,144,2.3,2.3,72,0.00,BKN,SKC,0.00,0.0,WeatherDisplay:10.37,2013-09-06 00:51:00,
2013-09-06 02:56:00,72.2,62.7,29.77,SE,144,4.6,4.6,72,0.00,BKN,SKC,0.00,0.0,WeatherDisplay:10.37,2013-09-06 00:56:00,
2013-09-06 03:01:00,72.2,62.7,29.77,SE,144,3.5,3.5,72,0.00,BKN,SKC,0.00,0.0,WeatherDisplay:10.37,2013-09-06 01:01:00,
2013-09-06 03:06:00,72.1,62.6,29.77,SE,144,3.5,3.5,72,0.00,BKN,SKC,0.00,0.0,WeatherDisplay:10.37,2013-09-06 01:06:00,
2013-09-06 03:11:00,72.0,62.5,29.77,SE,144,3.5,3.5,72,0.00,BKN,SKC,0.00,0.0,WeatherDisplay:10.37,2013-09-06 01:11:00,
2013-09-06 03:16:00,72.0,62.5,29.77,SE,144,3.0,3.0,72,0.00,BKN,SKC,0.00,0.0,WeatherDisplay:10.37,2013-09-06 01:16:00,
2013-09-06 03:21:00,71.9,62.4,29.77,SE,144,3.5,3.5,72,0.00,BKN,SKC,0.00,0.0,WeatherDisplay:10.37,2013-09-06 01:21:00,
2013-09-06 03:26:00,71.6,62.5,29.77,SE,144,4.0,4.0,73,0.00,BKN,SKC,0.00,0.0,WeatherDisplay:10.37,2013-09-06 01:26:00,
2013-09-06 03:31:00,71.3,62.2,29.77,SE,145,4.6,4.6,73,0.00,BKN,SKC,0.00,0.0,WeatherDisplay:10.37,2013-09-06 01:31:00,
2013-09-06 03:36:00,71.2,62.1,29.77,SE,145,3.5,3.5,73,0.00,BKN,SKC,0.00,0.0,WeatherDisplay:10.37,2013-09-06 01:36:00,
2013-09-06 03:41:00,71.1,62.0,29.77,SE,145,2.3,2.3,73,0.00,BKN,SKC,0.00,0.0,WeatherDisplay:10.37,2013-09-06 01:41:00,
2013-09-06 03:46:00,70.9,62.2,29.77,SE,145,3.5,3.5,74,0.00,BKN,SKC,0.00,0.0,WeatherDisplay:10.37,2013-09-06 01:46:00,
2013-09-06 03:51:00,70.7,62.0,29.77,SE,145,5.0,5.0,74,0.00,BKN,SKC,0.00,0.0,WeatherDisplay:10.37,2013-09-06 01:51:00,
2013-09-06 03:56:00,70.6,62.3,29.77,SE,145,4.6,4.6,75,0.00,BKN,SKC,0.00,0.0,WeatherDisplay:10.37,2013-09-06 01:56:00,
2013-09-06 04:01:00,70.4,62.1,29.77,SE,146,4.6,4.6,75,0.00,BKN,SKC,0.00,0.0,WeatherDisplay:10.37,2013-09-06 02:01:00,
2013-09-06 04:06:00,70.2,61.9,29.77,SE,146,5.0,5.0,75,0.00,BKN,SKC,0.00,0.0,WeatherDisplay:10.37,2013-09-06 02:06:00,
2013-09-06 04:11:00,70.1,62.2,29.77,SE,146,4.0,4.0,76,0.00,BKN,SKC,0.00,0.0,WeatherDisplay:10.37,2013-09-06 02:11:00,
2013-09-06 04:16:00,70.0,62.1,29.76,SSE,147,5.0,5.0,76,0.00,BKN,SKC,0.00,0.0,WeatherDisplay:10.37,2013-09-06 02:16:00,
2013-09-06 04:21:00,70.0,62.1,29.76,SSE,165,6.9,6.9,76,0.00,BKN,SKC,0.00,0.0,WeatherDisplay:10.37,2013-09-06 02:21:00,
2013-09-06 04:26:00,70.1,62.2,29.77,SSE,167,4.6,4.6,76,0.00,BKN,SKC,0.00,0.0,WeatherDisplay:10.37,2013-09-06 02:26:00,
2013-09-06 04:31:00,70.0,62.1,29.76,SSE,167,3.5,3.5,76,0.00,BKN,SKC,0.00,0.0,WeatherDisplay:10.37,2013-09-06 02:31:00,
2013-09-06 04:36:00,69.8,61.9,29.77,SSE,167,3.5,3.5,76,0.00,BKN,SKC,0.00,0.0,WeatherDisplay:10.37,2013-09-06 02:36:00,
2013-09-06 04:41:00,69.7,61.8,29.76,SSE,167,3.5,3.5,76,0.00,BKN,SKC,0.00,0.0,WeatherDisplay:10.37,2013-09-06 02:41:00,
2013-09-06 04:46:00,69.5,62.0,29.76,SSE,167,3.5,3.5,77,0.00,BKN,SKC,0.00,0.0,WeatherDisplay:10.37,2013-09-06 02:46:00,
2013-09-06 04:51:00,69.3,61.8,29.76,SSE,167,3.5,3.5,77,0.00,BKN,SKC,0.00,0.0,WeatherDisplay:10.37,2013-09-06 02:51:00,
2013-09-06 04:56:00,69.1,61.6,29.77,SSE,167,4.6,4.6,77,0.00,BKN,SKC,0.00,0.0,WeatherDisplay:10.37,2013-09-06 02:56:00,
2013-09-06 05:01:00,68.8,61.7,29.77,SSE,167,4.0,4.0,78,0.00,BKN,SKC,0.00,0.0,WeatherDisplay:10.37,2013-09-06 03:01:00,
2013-09-06 05:06:00,68.6,61.8,29.77,SSE,167,3.5,3.5,79,0.00,BKN,SKC,0.00,0.0,WeatherDisplay:10.37,2013-09-06 03:06:00,
2013-09-06 05:11:00,68.3,61.5,29.77,South,173,6.0,6.0,79,0.00,BKN,SKC,0.00,0.0,WeatherDisplay:10.37,2013-09-06 03:11:00,
2013-09-06 05:16:00,68.2,61.8,29.77,SSW,207,6.9,6.9,80,0.00,BKN,SKC,0.00,0.0,WeatherDisplay:10.37,2013-09-06 03:16:00,
2013-09-06 05:21:00,68.1,62.0,29.76,SSW,211,7.0,7.0,81,0.00,BKN,SKC,0.00,0.0,WeatherDisplay:10.37,2013-09-06 03:21:00,
2013-09-06 05:26:00,67.9,61.9,29.76,SSW,211,5.8,5.8,81,0.00,BKN,SKC,0.00,0.0,WeatherDisplay:10.37,2013-09-06 03:26:00,
2013-09-06 05:31:00,67.7,62.0,29.76,SSW,211,4.6,4.6,82,0.00,BKN,SKC,0.00,0.0,WeatherDisplay:10.37,2013-09-06 03:31:00,
2013-09-06 05:36:00,67.6,62.3,29.76,SW,214,6.9,6.9,83,0.00,BKN,SKC,0.00,0.0,WeatherDisplay:10.37,2013-09-06 03:36:00,
2013-09-06 05:41:00,67.4,62.1,29.76,SW,218,8.1,8.1,83,0.00,BKN,SKC,0.00,0.0,WeatherDisplay:10.37,2013-09-06 03:41:00,
2013-09-06 05:46:00,67.3,62.3,29.76,SW,219,6.9,6.9,84,0.00,BKN,SKC,0.00,0.0,WeatherDisplay:10.37,2013-09-06 03:46:00,
2013-09-06 05:51:00,67.2,62.2,29.76,SW,219,3.5,3.5,84,0.00,BKN,SKC,0.00,0.0,WeatherDisplay:10.37,2013-09-06 03:51:00,
2013-09-06 05:56:00,67.1,62.4,29.76,SW,219,5.8,5.8,85,0.00,BKN,SKC,0.00,0.0,WeatherDisplay:10.37,2013-09-06 03:56:00,
2013-09-06 06:01:00,67.0,62.3,29.76,SW,220,5.8,5.8,85,0.00,BKN,SKC,0.00,0.0,WeatherDisplay:10.37,2013-09-06 04:01:00,
2013-09-06 06:02:00,67.0,62.3,29.76,SW,220,5.8,5.8,85,0.00,BKN,SKC,0.00,0.0,WeatherDisplay:10.37,2013-09-06 04:02:00,
2013-09-06 06:07:00,66.8,62.5,29.76,SW,221,5.8,5.8,86,0.00,BKN,SKC,0.00,0.0,WeatherDisplay:10.37,2013-09-06 04:07:00,
2013-09-06 06:08:00,66.8,62.5,29.76,SW,221,5.8,5.8,86,0.00,BKN,SKC,0.00,0.0,WeatherDisplay:10.37,2013-09-06 04:08:00,
2013-09-06 06:10:00,66.8,62.5,29.76,SW,221,6.9,6.9,86,0.00,BKN,SKC,0.00,0.0,WeatherDisplay:10.37,2013-09-06 04:10:00,
2013-09-06 06:15:00,66.7,62.4,29.76,SW,220,6.9,6.9,86,0.00,BKN,SKC,0.00,0.0,WeatherDisplay:10.37,2013-09-06 04:15:00,
2013-09-06 06:17:00,66.7,62.4,29.76,SW,221,5.8,5.8,86,0.00,BKN,SKC,0.00,0.0,WeatherDisplay:10.37,2013-09-06 04:17:00,
2013-09-06 06:22:00,66.5,62.5,29.76,SW,221,6.9,6.9,87,0.00,BKN,SKC,0.00,0.0,WeatherDisplay:10.37,2013-09-06 04:22:00,
2013-09-06 06:27:00,66.5,62.5,29.76,SW,222,6.9,6.9,87,0.00,BKN,SKC,0.00,0.0,WeatherDisplay:10.37,2013-09-06 04:27:00,
2013-09-06 06:29:00,66.5,62.5,29.76,SW,222,5.8,5.8,87,0.00,BKN,SKC,0.00,0.0,WeatherDisplay:10.37,2013-09-06 04:29:00,
2013-09-06 06:34:00,66.4,62.4,29.76,SW,222,3.5,3.5,87,0.00,BKN,SKC,0.00,0.0,WeatherDisplay:10.37,2013-09-06 04:34:00,
2013-09-06 06:39:00,66.3,62.3,29.76,SW,222,6.0,6.0,87,0.00,BKN,SKC,0.00,0.0,WeatherDisplay:10.37,2013-09-06 04:39:00,
2013-09-06 06:44:00,66.2,62.5,29.77,SW,222,6.0,6.0,88,0.00,BKN,SKC,0.00,0.0,WeatherDisplay:10.37,2013-09-06 04:44:00,
2013-09-06 06:49:00,66.2,62.5,29.77,SW,222,4.6,4.6,88,0.00,BKN,SKC,0.00,0.0,WeatherDisplay:10.37,2013-09-06 04:49:00,
2013-09-06 06:54:00,66.2,62.5,29.77,SW,222,4.0,4.0,88,0.00,BKN,SKC,0.00,5.0,WeatherDisplay:10.37,2013-09-06 04:54:00,
2013-09-06 06:59:00,66.0,62.3,29.77,SW,222,3.5,3.5,88,0.00,BKN,SKC,0.00,7.1,WeatherDisplay:10.37,2013-09-06 04:59:00,
2013-09-06 07:04:00,65.9,62.2,29.77,SW,222,4.0,4.0,88,0.00,BKN,SKC,0.00,9.1,WeatherDisplay:10.37,2013-09-06 05:04:00,
2013-09-06 07:09:00,65.8,62.5,29.77,SW,222,3.5,3.5,89,0.00,BKN,SKC,0.00,11.1,WeatherDisplay:10.37,2013-09-06 05:09:00,
2013-09-06 07:14:00,65.7,62.4,29.77,SW,222,4.6,4.6,89,0.00,BKN,SKC,0.00,14.1,WeatherDisplay:10.37,2013-09-06 05:14:00,
2013-09-06 07:19:00,65.7,62.4,29.77,SW,222,4.0,4.0,89,0.00,BKN,SKC,0.00,21.2,WeatherDisplay:10.37,2013-09-06 05:19:00,
2013-09-06 07:24:00,65.6,62.3,29.77,SW,222,4.0,4.0,89,0.00,BKN,SKC,0.00,28.3,WeatherDisplay:10.37,2013-09-06 05:24:00,
2013-09-06 07:29:00,65.6,62.3,29.77,SW,222,3.5,3.5,89,0.00,BKN,SKC,0.00,40.4,WeatherDisplay:10.37,2013-09-06 05:29:00,
2013-09-06 07:34:00,65.6,62.3,29.77,SW,222,3.5,3.5,89,0.00,BKN,SKC,0.00,53.5,WeatherDisplay:10.37,2013-09-06 05:34:00,
2013-09-06 07:39:00,65.7,62.4,29.77,SW,222,3.5,3.5,89,0.00,BKN,SKC,0.00,58.6,WeatherDisplay:10.37,2013-09-06 05:39:00,
2013-09-06 07:44:00,65.8,62.5,29.77,SW,222,4.6,4.6,89,0.00,BKN,SKC,0.00,63.6,WeatherDisplay:10.37,2013-09-06 05:44:00,
2013-09-06 07:49:00,66.0,62.7,29.77,SW,222,5.8,5.8,89,0.00,BKN,SKC,0.00,74.7,WeatherDisplay:10.37,2013-09-06 05:49:00,
2013-09-06 07:54:00,66.2,62.9,29.77,SW,221,5.0,5.0,89,0.00,BKN,SKC,0.00,83.8,WeatherDisplay:10.37,2013-09-06 05:54:00,
2013-09-06 07:59:00,66.3,63.0,29.77,SW,221,3.5,3.5,89,0.00,BKN,SKC,0.00,96.0,WeatherDisplay:10.37,2013-09-06 05:59:00,
2013-09-06 08:04:00,66.5,62.8,29.76,SW,221,4.6,4.6,88,0.00,BKN,SKC,0.00,112.1,WeatherDisplay:10.37,2013-09-06 06:04:00,
2013-09-06 08:09:00,66.7,63.0,29.77,SW,221,4.0,4.0,88,0.00,BKN,SKC,0.00,129.3,WeatherDisplay:10.37,2013-09-06 06:09:00,
2013-09-06 08:14:00,66.9,63.2,29.77,SW,221,4.6,4.6,88,0.00,BKN,SKC,0.00,136.3,WeatherDisplay:10.37,2013-09-06 06:14:00,
2013-09-06 08:19:00,67.1,63.4,29.77,SSW,211,6.9,6.9,88,0.00,BKN,SKC,0.00,145.4,WeatherDisplay:10.37,2013-09-06 06:19:00,
2013-09-06 08:24:00,67.2,63.2,29.77,SSW,206,9.2,9.2,87,0.00,BKN,SKC,0.00,161.6,WeatherDisplay:10.37,2013-09-06 06:24:00,
2013-09-06 08:29:00,67.3,63.6,29.77,SSW,206,6.9,6.9,88,0.00,BKN,SKC,0.00,177.8,WeatherDisplay:10.37,2013-09-06 06:29:00,
2013-09-06 08:34:00,67.3,63.3,29.78,SSW,213,8.1,8.1,87,0.00,BKN,SKC,0.00,191.9,WeatherDisplay:10.37,2013-09-06 06:34:00,
2013-09-06 08:39:00,67.4,63.4,29.78,SSW,213,5.0,5.0,87,0.00,BKN,SKC,0.00,194.9,WeatherDisplay:10.37,2013-09-06 06:39:00,
2013-09-06 08:44:00,67.6,63.6,29.78,SSW,207,6.9,6.9,87,0.00,BKN,SKC,0.00,191.9,WeatherDisplay:10.37,2013-09-06 06:44:00,
2013-09-06 08:49:00,67.7,63.7,29.78,SSW,208,4.6,4.6,87,0.00,BKN,SKC,0.00,193.9,WeatherDisplay:10.37,2013-09-06 06:49:00,
2013-09-06 08:54:00,67.6,63.6,29.78,SSW,207,10.4,10.4,87,0.00,BKN,SKC,0.00,196.9,WeatherDisplay:10.37,2013-09-06 06:54:00,
2013-09-06 08:59:00,67.7,63.7,29.78,SSW,209,6.9,6.9,87,0.00,BKN,SKC,0.00,211.1,WeatherDisplay:10.37,2013-09-06 06:59:00,
2013-09-06 09:04:00,67.7,63.7,29.78,SW,227,9.2,9.2,87,0.00,BKN,SKC,0.00,223.2,WeatherDisplay:10.37,2013-09-06 07:04:00,
2013-09-06 09:09:00,68.0,64.0,29.79,SW,221,6.9,6.9,87,0.00,BKN,SKC,0.00,245.4,WeatherDisplay:10.37,2013-09-06 07:09:00,
2013-09-06 09:14:00,68.0,64.0,29.79,SW,227,6.9,6.9,87,0.00,BKN,SKC,0.00,269.7,WeatherDisplay:10.37,2013-09-06 07:14:00,
2013-09-06 09:19:00,68.1,63.8,29.79,SW,220,10.4,10.4,86,0.00,BKN,SKC,0.00,271.7,WeatherDisplay:10.37,2013-09-06 07:19:00,
2013-09-06 09:24:00,68.2,63.9,29.79,SW,227,8.1,8.1,86,0.00,BKN,SKC,0.00,225.2,WeatherDisplay:10.37,2013-09-06 07:24:00,
2013-09-06 09:29:00,68.3,63.9,29.79,SSW,211,6.9,6.9,86,0.00,BKN,SKC,0.00,241.4,WeatherDisplay:10.37,2013-09-06 07:29:00,
2013-09-06 09:34:00,68.4,64.0,29.79,SW,221,6.9,6.9,86,0.00,BKN,SKC,0.00,280.8,WeatherDisplay:10.37,2013-09-06 07:34:00,
2013-09-06 09:39:00,68.5,64.1,29.79,SSW,211,10.4,10.4,86,0.00,BKN,SKC,0.00,330.3,WeatherDisplay:10.37,2013-09-06 07:39:00,
2013-09-06 09:44:00,68.4,64.0,29.80,SW,229,10.4,10.4,86,0.00,SCT,SKC,0.00,369.7,WeatherDisplay:10.37,2013-09-06 07:44:00,
2013-09-06 09:49:00,68.5,64.1,29.79,SW,235,9.2,9.2,86,0.00,BKN,SKC,0.00,379.8,WeatherDisplay:10.37,2013-09-06 07:49:00,
2013-09-06 09:54:00,68.9,64.5,29.80,SSW,206,7.0,7.0,86,0.00,SCT,SKC,0.00,289.9,WeatherDisplay:10.37,2013-09-06 07:54:00,
2013-09-06 09:59:00,69.2,64.5,29.80,SW,228,10.4,10.4,85,0.00,BKN,SKC,0.00,388.9,WeatherDisplay:10.37,2013-09-06 07:59:00,
2013-09-06 10:04:00,69.1,64.1,29.80,SW,230,11.5,11.5,84,0.00,BKN,SKC,0.00,262.6,WeatherDisplay:10.37,2013-09-06 08:04:00,
2013-09-06 10:09:00,69.3,64.3,29.81,SSW,212,6.0,6.0,84,0.00,BKN,SKC,0.00,296.9,WeatherDisplay:10.37,2013-09-06 08:09:00,
2013-09-06 10:14:00,69.5,64.1,29.81,SW,218,6.9,6.9,83,0.00,BKN,SKC,0.00,245.4,WeatherDisplay:10.37,2013-09-06 08:14:00,
2013-09-06 10:19:00,69.6,63.5,29.81,SW,229,11.5,11.5,81,0.00,BKN,SKC,0.00,458.5,WeatherDisplay:10.37,2013-09-06 08:19:00,
2013-09-06 10:24:00,70.1,64.0,29.80,WSW,238,10.0,10.0,81,0.00,SCT,SKC,0.00,473.7,WeatherDisplay:10.37,2013-09-06 08:24:00,
2013-09-06 10:29:00,70.5,63.7,29.80,SW,229,9.2,9.2,79,0.00,SCT,SKC,0.00,362.6,WeatherDisplay:10.37,2013-09-06 08:29:00,
2013-09-06 10:34:00,70.7,62.8,29.80,SW,229,10.4,10.4,76,0.00,BKN,SKC,0.00,346.4,WeatherDisplay:10.37,2013-09-06 08:34:00,
2013-09-06 10:39:00,70.7,63.1,29.80,SW,232,9.2,9.2,77,0.00,BKN,SKC,0.00,346.4,WeatherDisplay:10.37,2013-09-06 08:39:00,
2013-09-06 10:44:00,70.7,63.1,29.80,SSW,209,9.2,9.2,77,0.00,BKN,SKC,0.00,367.6,WeatherDisplay:10.37,2013-09-06 08:44:00,
2013-09-06 10:49:00,70.4,63.2,29.80,SW,216,10.4,10.4,78,0.00,BKN,SKC,0.00,351.5,WeatherDisplay:10.37,2013-09-06 08:49:00,
2013-09-06 10:54:00,70.6,63.4,29.80,SW,224,7.0,7.0,78,0.00,BKN,SKC,0.00,323.2,WeatherDisplay:10.37,2013-09-06 08:54:00,
2013-09-06 10:59:00,70.5,62.6,29.80,SW,230,13.8,13.8,76,0.00,BKN,SKC,0.00,290.9,WeatherDisplay:10.37,2013-09-06 08:59:00,
2013-09-06 11:04:00,70.4,62.8,29.80,WSW,238,8.1,9.4,77,0.00,BKN,SKC,0.00,312.1,WeatherDisplay:10.37,2013-09-06 09:04:00,
2013-09-06 11:09:00,70.2,63.0,29.80,SW,231,9.2,9.2,78,0.00,BKN,SKC,0.00,326.2,WeatherDisplay:10.37,2013-09-06 09:09:00,
2013-09-06 11:14:00,70.2,63.0,29.80,SSW,208,6.9,6.9,78,0.00,BKN,SKC,0.00,335.3,WeatherDisplay:10.37,2013-09-06 09:14:00,
2013-09-06 11:19:00,70.2,63.4,29.80,SW,214,6.9,6.9,79,0.00,BKN,SKC,0.00,388.9,WeatherDisplay:10.37,2013-09-06 09:19:00,
2013-09-06 11:24:00,70.3,63.1,29.80,WSW,237,11.5,11.5,78,0.00,BKN,SKC,0.00,349.5,WeatherDisplay:10.37,2013-09-06 09:24:00,
2013-09-06 11:29:00,70.4,63.2,29.80,SW,214,6.9,6.9,78,0.00,BKN,SKC,0.00,271.7,WeatherDisplay:10.37,2013-09-06 09:29:00,
2013-09-06 11:34:00,70.7,62.8,29.80,SW,233,11.0,11.0,76,0.00,BKN,SKC,0.00,241.4,WeatherDisplay:10.37,2013-09-06 09:34:00,
2013-09-06 11:39:00,70.5,62.6,29.80,WSW,257,7.0,7.0,76,0.00,BKN,SKC,0.00,332.3,WeatherDisplay:10.37,2013-09-06 09:39:00,
2013-09-06 11:44:00,70.6,62.3,29.81,SW,235,10.4,10.4,75,0.00,BKN,SKC,0.00,470.7,WeatherDisplay:10.37,2013-09-06 09:44:00,
2013-09-06 11:49:00,70.8,62.9,29.80,WSW,247,6.9,6.9,76,0.00,BKN,SKC,0.00,480.8,WeatherDisplay:10.37,2013-09-06 09:49:00,
2013-09-06 11:54:00,71.1,62.4,29.80,SW,227,6.9,6.9,74,0.00,SCT,SKC,0.00,520.1,WeatherDisplay:10.37,2013-09-06 09:54:00,
2013-09-06 11:59:00,71.5,62.8,29.80,WNW,285,5.8,5.8,74,0.00,SCT,SKC,0.00,454.5,WeatherDisplay:10.37,2013-09-06 09:59:00,
2013-09-06 12:04:00,71.8,62.3,29.80,WSW,240,8.0,8.0,72,0.00,SCT,SKC,0.00,611.0,WeatherDisplay:10.37,2013-09-06 10:04:00,
2013-09-06 12:09:00,71.5,62.0,29.80,WSW,238,6.0,6.0,72,0.00,FEW,SKC,0.00,559.5,WeatherDisplay:10.37,2013-09-06 10:09:00,
2013-09-06 12:14:00,71.5,62.4,29.80,WSW,237,5.0,5.0,73,0.00,SCT,SKC,0.00,541.4,WeatherDisplay:10.37,2013-09-06 10:14:00,
2013-09-06 12:19:00,71.6,62.1,29.80,WNW,295,5.8,5.8,72,0.00,BKN,SKC,0.00,515.1,WeatherDisplay:10.37,2013-09-06 10:19:00,
2013-09-06 12:24:00,71.9,62.0,29.81,WSW,238,8.1,8.1,71,0.00,BKN,SKC,0.00,522.2,WeatherDisplay:10.37,2013-09-06 10:24:00,
2013-09-06 12:29:00,72.1,62.6,29.81,SW,232,3.5,3.5,72,0.00,SCT,SKC,0.00,623.2,WeatherDisplay:10.37,2013-09-06 10:29:00,
2013-09-06 12:34:00,72.5,62.6,29.81,SW,229,6.9,6.9,71,0.00,FEW,SKC,0.00,621.1,WeatherDisplay:10.37,2013-09-06 10:34:00,
2013-09-06 12:39:00,72.6,62.3,29.81,WSW,238,11.5,11.5,70,0.00,SCT,SKC,0.00,466.6,WeatherDisplay:10.37,2013-09-06 10:39:00,
2013-09-06 12:44:00,72.8,62.4,29.80,SW,236,5.8,5.8,70,0.00,SCT,SKC,0.00,573.7,WeatherDisplay:10.37,2013-09-06 10:44:00,
2013-09-06 12:49:00,73.2,60.7,29.81,WSW,237,11.5,11.5,65,0.00,SCT,SKC,0.00,541.4,WeatherDisplay:10.37,2013-09-06 10:49:00,
2013-09-06 12:55:00,73.0,61.4,29.80,SW,233,9.2,9.2,67,0.00,SCT,SKC,0.00,522.2,WeatherDisplay:10.37,2013-09-06 10:55:00,
2013-09-06 13:01:00,73.2,62.0,29.80,SW,224,8.1,8.1,68,0.00,FEW,SKC,0.00,611.0,WeatherDisplay:10.37,2013-09-06 11:01:00,
2013-09-06 13:06:00,73.2,62.0,29.80,NW,311,8.1,8.1,68,0.00,FEW,SKC,0.00,597.9,WeatherDisplay:10.37,2013-09-06 11:06:00,
2013-09-06 13:11:00,73.1,61.9,29.81,West,276,8.1,8.1,68,0.00,FEW,SKC,0.00,623.2,WeatherDisplay:10.37,2013-09-06 11:11:00,
2013-09-06 13:16:00,72.9,61.7,29.81,NNW,331,8.1,8.1,68,0.00,FEW,SKC,0.00,614.1,WeatherDisplay:10.37,2013-09-06 11:16:00,
2013-09-06 13:21:00,72.9,61.7,29.81,SW,234,11.5,11.5,68,0.00,FEW,SKC,0.00,641.4,WeatherDisplay:10.37,2013-09-06 11:21:00,
2013-09-06 13:26:00,72.4,62.5,29.80,SW,232,7.0,7.0,71,0.00,FEW,SKC,0.00,672.7,WeatherDisplay:10.37,2013-09-06 11:26:00,
2013-09-06 13:31:00,72.2,62.3,29.81,West,263,6.9,6.9,71,0.00,SCT,SKC,0.00,465.6,WeatherDisplay:10.37,2013-09-06 11:31:00,
2013-09-06 13:36:00,72.1,62.6,29.80,SW,223,9.0,9.0,72,0.00,SCT,SKC,0.00,612.1,WeatherDisplay:10.37,2013-09-06 11:36:00,
2013-09-06 13:41:00,71.3,62.2,29.81,West,270,6.9,6.9,73,0.00,FEW,SKC,0.00,676.7,WeatherDisplay:10.37,2013-09-06 11:41:00,
2013-09-06 13:46:00,71.7,61.4,29.80,WNW,295,11.5,11.5,70,0.00,FEW,SKC,0.00,536.3,WeatherDisplay:10.37,2013-09-06 11:46:00,
2013-09-06 13:51:00,71.9,61.6,29.81,SW,234,5.0,5.0,70,0.00,BKN,SKC,0.00,304.0,WeatherDisplay:10.37,2013-09-06 11:51:00,
2013-09-06 13:56:00,71.7,61.4,29.81,SW,232,9.2,9.2,70,0.00,BKN,SKC,0.00,458.5,WeatherDisplay:10.37,2013-09-06 11:56:00,
2013-09-06 14:01:00,71.4,61.9,29.81,SW,227,9.2,9.2,72,0.00,BKN,SKC,0.00,386.8,WeatherDisplay:10.37,2013-09-06 12:01:00,
2013-09-06 14:06:00,71.2,61.7,29.82,SW,225,10.4,10.4,72,0.00,BKN,SKC,0.00,557.5,WeatherDisplay:10.37,2013-09-06 12:06:00,
2013-09-06 14:11:00,71.0,61.5,29.81,West,273,5.8,5.8,72,0.00,SCT,SKC,0.00,662.6,WeatherDisplay:10.37,2013-09-06 12:11:00,
2013-09-06 14:16:00,71.4,62.3,29.82,WNW,295,7.0,7.0,73,0.00,FEW,SKC,0.00,450.5,WeatherDisplay:10.37,2013-09-06 12:16:00,
2013-09-06 14:21:00,71.5,62.0,29.82,West,273,4.6,4.6,72,0.00,SCT,SKC,0.00,575.7,WeatherDisplay:10.37,2013-09-06 12:21:00,
2013-09-06 14:26:00,71.7,62.6,29.82,WSW,243,5.8,5.8,73,0.00,BKN,SKC,0.00,436.3,WeatherDisplay:10.37,2013-09-06 12:26:00,
2013-09-06 14:31:00,71.3,61.4,29.82,SW,235,8.1,8.1,71,0.00,BKN,SKC,0.00,330.3,WeatherDisplay:10.37,2013-09-06 12:31:00,
2013-09-06 14:36:00,71.0,62.3,29.82,SSW,211,8.1,8.1,74,0.00,BKN,SKC,0.00,541.4,WeatherDisplay:10.37,2013-09-06 12:36:00,
2013-09-06 14:41:00,71.1,62.4,29.82,WSW,253,4.6,4.6,74,0.00,SCT,SKC,0.00,612.1,WeatherDisplay:10.37,2013-09-06 12:41:00,
2013-09-06 14:46:00,71.0,62.7,29.82,WSW,241,8.1,8.1,75,0.00,BKN,SKC,0.00,206.0,WeatherDisplay:10.37,2013-09-06 12:46:00,
2013-09-06 14:51:00,70.7,62.4,29.82,WSW,242,4.6,4.6,75,0.00,BKN,SKC,0.00,239.4,WeatherDisplay:10.37,2013-09-06 12:51:00,
2013-09-06 14:56:00,70.6,62.3,29.82,WSW,255,4.6,4.6,75,0.00,BKN,SKC,0.00,199.0,WeatherDisplay:10.37,2013-09-06 12:56:00,
2013-09-06 15:01:00,70.6,62.3,29.82,West,264,6.9,6.9,75,0.00,BKN,SKC,0.00,177.8,WeatherDisplay:10.37,2013-09-06 13:01:00,
2013-09-06 15:06:00,70.6,62.3,29.82,West,264,0.0,0.0,75,0.00,BKN,SKC,0.00,196.9,WeatherDisplay:10.37,2013-09-06 13:06:00,
2013-09-06 15:11:00,70.6,61.5,29.82,West,264,2.3,2.3,73,0.00,BKN,SKC,0.00,129.3,WeatherDisplay:10.37,2013-09-06 13:11:00,
2013-09-06 15:16:00,70.8,62.1,29.82,West,264,1.2,0.0,74,0.00,BKN,SKC,0.00,88.9,WeatherDisplay:10.37,2013-09-06 13:16:00,
2013-09-06 15:21:00,71.1,62.0,29.82,West,264,1.2,1.2,73,0.00,BKN,SKC,0.00,81.8,WeatherDisplay:10.37,2013-09-06 13:21:00,
2013-09-06 15:26:00,70.9,61.8,29.83,WSW,258,5.0,5.0,73,0.00,BKN,SKC,0.00,33.3,WeatherDisplay:10.37,2013-09-06 13:26:00,
2013-09-06 15:31:00,70.8,61.7,29.89,SSW,202,19.6,19.6,73,0.00,OVC,SKC,0.00,5.0,WeatherDisplay:10.37,2013-09-06 13:31:00,
2013-09-06 15:36:00,70.7,62.4,29.89,SSW,208,17.3,17.3,75,0.00,OVC,SKC,0.00,21.2,WeatherDisplay:10.37,2013-09-06 13:36:00,
2013-09-06 15:41:00,70.2,63.0,29.88,SSW,208,12.7,12.7,78,0.01,RA,SKC,0.01,26.3,WeatherDisplay:10.37,2013-09-06 13:41:00,
2013-09-06 15:46:00,69.0,61.9,29.88,SSW,201,12.7,12.7,78,0.02,RA,SKC,0.02,25.3,WeatherDisplay:10.37,2013-09-06 13:46:00,
2013-09-06 15:51:00,68.4,62.7,29.88,SW,223,6.9,6.9,82,0.02,RA,SKC,0.02,19.2,WeatherDisplay:10.37,2013-09-06 13:51:00,
2013-09-06 15:57:00,67.6,61.6,29.87,SW,225,6.9,6.9,81,0.03,RA,SKC,0.03,23.2,WeatherDisplay:10.37,2013-09-06 13:57:00,
2013-09-06 16:02:00,67.3,62.0,29.86,SW,225,8.1,8.1,83,0.03,RA,SKC,0.03,28.3,WeatherDisplay:10.37,2013-09-06 14:02:00,
2013-09-06 16:07:00,66.4,60.4,29.86,SW,223,9.2,9.2,81,0.04,RA,SKC,0.04,35.4,WeatherDisplay:10.37,2013-09-06 14:07:00,
2013-09-06 16:12:00,65.7,59.7,29.86,SW,226,9.2,9.2,81,0.04,RA,SKC,0.04,32.3,WeatherDisplay:10.37,2013-09-06 14:12:00,
2013-09-06 16:17:00,65.0,59.7,29.87,SW,226,7.0,7.0,83,0.05,RA,SKC,0.05,35.4,WeatherDisplay:10.37,2013-09-06 14:17:00,
2013-09-06 16:22:00,64.2,58.9,29.87,SW,227,6.9,6.9,83,0.05,RA,SKC,0.05,46.5,WeatherDisplay:10.37,2013-09-06 14:22:00,
2013-09-06 16:27:00,63.7,58.4,29.83,NNW,343,8.1,8.1,83,0.06,RA,SKC,0.06,72.7,WeatherDisplay:10.37,2013-09-06 14:27:00,
2013-09-06 16:32:00,63.4,58.5,29.81,NNW,338,10.4,10.4,84,0.06,RA,SKC,0.06,70.7,WeatherDisplay:10.37,2013-09-06 14:32:00,
2013-09-06 16:38:00,63.3,59.0,29.81,NW,313,9.2,9.2,86,0.06,BKN,SKC,0.06,150.5,WeatherDisplay:10.37,2013-09-06 14:38:00,
2013-09-06 16:43:00,63.5,59.6,29.82,NW,305,4.0,4.0,87,0.05,BKN,SKC,0.06,143.4,WeatherDisplay:10.37,2013-09-06 14:43:00,
2013-09-06 16:48:00,63.9,60.0,29.83,WNW,292,3.5,3.5,87,0.04,BKN,SKC,0.06,518.1,WeatherDisplay:10.37,2013-09-06 14:48:00,
2013-09-06 16:53:00,64.4,60.4,29.83,SW,236,8.1,8.1,87,0.03,SCT,SKC,0.06,157.6,WeatherDisplay:10.37,2013-09-06 14:53:00,
2013-09-06 16:58:00,64.4,60.1,29.83,West,263,3.5,3.5,86,0.02,BKN,SKC,0.06,98.0,WeatherDisplay:10.37,2013-09-06 14:58:00,
2013-09-06 17:03:00,64.3,60.0,29.83,West,281,4.6,4.6,86,0.02,BKN,SKC,0.06,129.3,WeatherDisplay:10.37,2013-09-06 15:03:00,
2013-09-06 17:09:00,64.4,60.1,29.82,NW,306,5.8,5.8,86,0.02,BKN,SKC,0.06,76.8,WeatherDisplay:10.37,2013-09-06 15:09:00,
2013-09-06 17:14:00,64.4,59.8,29.82,NW,306,4.6,4.6,85,0.01,BKN,SKC,0.06,23.2,WeatherDisplay:10.37,2013-09-06 15:14:00,
2013-09-06 17:19:00,64.5,59.9,29.82,NW,306,3.5,3.5,85,0.01,BKN,SKC,0.06,11.1,WeatherDisplay:10.37,2013-09-06 15:19:00,
2013-09-06 17:24:00,64.5,59.9,29.83,NW,306,3.5,3.5,85,0.01,OVC,SKC,0.06,9.1,WeatherDisplay:10.37,2013-09-06 15:24:00,
2013-09-06 17:29:00,64.4,60.1,29.85,NW,306,2.3,2.3,86,0.00,OVC,SKC,0.06,14.1,WeatherDisplay:10.37,2013-09-06 15:29:00,
2013-09-06 17:34:00,64.4,60.4,29.82,NW,306,3.5,3.5,87,0.01,RA,SKC,0.06,14.1,WeatherDisplay:10.37,2013-09-06 15:34:00,
2013-09-06 17:39:00,64.4,60.4,29.83,NW,306,3.5,3.5,87,0.01,RA,SKC,0.06,19.2,WeatherDisplay:10.37,2013-09-06 15:39:00,
2013-09-06 17:44:00,64.2,60.6,29.83,NW,309,3.5,3.5,88,0.01,RA,SKC,0.06,60.6,WeatherDisplay:10.37,2013-09-06 15:44:00,
2013-09-06 17:49:00,64.3,61.0,29.83,NW,309,0.0,0.0,89,0.01,BKN,SKC,0.06,76.8,WeatherDisplay:10.37,2013-09-06 15:49:00,
2013-09-06 17:54:00,64.5,61.2,29.83,NW,309,0.0,0.0,89,0.02,RA,SKC,0.07,69.7,WeatherDisplay:10.37,2013-09-06 15:54:00,
2013-09-06 18:00:00,64.6,61.3,29.83,NW,309,3.5,3.5,89,0.02,RA,SKC,0.07,65.7,WeatherDisplay:10.37,2013-09-06 16:00:00,
2013-09-06 18:05:00,64.6,61.6,29.84,NW,309,2.3,2.3,90,0.02,BKN,SKC,0.07,96.0,WeatherDisplay:10.37,2013-09-06 16:05:00,
2013-09-06 18:10:00,64.6,61.6,29.84,NW,309,2.3,2.3,90,0.02,BKN,SKC,0.07,170.7,WeatherDisplay:10.37,2013-09-06 16:10:00,
2013-09-06 18:15:00,64.9,61.9,29.84,NW,309,0.0,0.0,90,0.02,FEW,SKC,0.07,305.0,WeatherDisplay:10.37,2013-09-06 16:15:00,
2013-09-06 18:23:00,65.4,62.4,29.85,NW,309,2.3,0.0,90,0.02,FEW,SKC,0.07,213.1,WeatherDisplay:10.37,2013-09-06 16:23:00,
2013-09-06 18:30:00,65.8,62.5,29.85,NW,309,2.3,2.3,89,0.02,FEW,SKC,0.07,186.8,WeatherDisplay:10.37,2013-09-06 16:30:00,
2013-09-06 18:36:00,65.9,62.2,29.85,NW,309,2.3,2.3,88,0.02,SCT,SKC,0.07,161.6,WeatherDisplay:10.37,2013-09-06 16:36:00,
2013-09-06 18:41:00,66.0,62.0,29.85,WNW,286,5.8,5.8,87,0.02,SCT,SKC,0.07,156.6,WeatherDisplay:10.37,2013-09-06 16:41:00,
2013-09-06 18:46:00,66.0,61.7,29.85,West,273,4.6,4.6,86,0.01,SCT,SKC,0.07,143.4,WeatherDisplay:10.37,2013-09-06 16:46:00,
2013-09-06 18:52:00,66.1,61.8,29.85,West,273,1.2,0.0,86,0.01,SCT,SKC,0.07,122.2,WeatherDisplay:10.37,2013-09-06 16:52:00,
2013-09-06 18:57:00,66.5,62.5,29.85,West,273,2.3,2.3,87,0.00,SCT,SKC,0.07,108.1,WeatherDisplay:10.37,2013-09-06 16:57:00,
2013-09-06 19:02:00,66.4,61.8,29.85,West,273,3.5,3.5,85,0.00,BKN,SKC,0.07,96.0,WeatherDisplay:10.37,2013-09-06 17:02:00,
2013-09-06 19:07:00,66.3,61.7,29.85,West,271,4.6,4.6,85,0.00,BKN,SKC,0.07,83.8,WeatherDisplay:10.37,2013-09-06 17:07:00,
2013-09-06 19:12:00,66.0,61.4,29.86,West,269,4.6,4.6,85,0.00,BKN,SKC,0.07,72.7,WeatherDisplay:10.37,2013-09-06 17:12:00,
2013-09-06 19:17:00,66.1,61.5,29.86,West,269,1.2,1.2,85,0.00,BKN,SKC,0.07,62.6,WeatherDisplay:10.37,2013-09-06 17:17:00,
2013-09-06 19:22:00,66.2,61.6,29.86,West,269,1.2,0.0,85,0.00,BKN,SKC,0.07,53.5,WeatherDisplay:10.37,2013-09-06 17:22:00,
2013-09-06 19:27:00,66.3,61.7,29.86,West,269,0.0,0.0,85,0.00,BKN,SKC,0.07,44.4,WeatherDisplay:10.37,2013-09-06 17:27:00,
2013-09-06 19:32:00,66.1,61.1,29.86,West,269,1.2,1.2,84,0.00,BKN,SKC,0.07,39.4,WeatherDisplay:10.37,2013-09-06 17:32:00,
2013-09-06 19:37:00,66.0,61.0,29.86,West,269,0.0,0.0,84,0.00,BKN,SKC,0.07,30.3,WeatherDisplay:10.37,2013-09-06 17:37:00,
2013-09-06 19:42:00,66.0,60.7,29.86,West,269,0.0,0.0,83,0.00,BKN,SKC,0.07,25.3,WeatherDisplay:10.37,2013-09-06 17:42:00,
2013-09-06 19:47:00,65.9,60.6,29.87,West,269,0.0,0.0,83,0.00,BKN,SKC,0.07,21.2,WeatherDisplay:10.37,2013-09-06 17:47:00,
2013-09-06 19:52:00,66.1,60.8,29.87,West,269,0.0,0.0,83,0.00,BKN,SKC,0.07,19.2,WeatherDisplay:10.37,2013-09-06 17:52:00,
2013-09-06 19:57:00,66.1,60.8,29.87,West,269,0.0,0.0,83,0.00,BKN,SKC,0.07,18.2,WeatherDisplay:10.37,2013-09-06 17:57:00,
2013-09-06 20:02:00,66.0,60.7,29.87,West,269,0.0,0.0,83,0.00,BKN,SKC,0.07,11.1,WeatherDisplay:10.37,2013-09-06 18:02:00,
2013-09-06 20:07:00,65.8,60.5,29.88,WNW,284,1.2,0.0,83,0.00,BKN,SKC,0.07,9.1,WeatherDisplay:10.37,2013-09-06 18:07:00,
2013-09-06 20:12:00,65.5,60.2,29.89,WNW,284,2.3,2.3,83,0.00,BKN,SKC,0.07,5.0,WeatherDisplay:10.37,2013-09-06 18:12:00,
2013-09-06 20:17:00,65.3,60.3,29.89,WNW,284,3.5,3.5,84,0.00,BKN,SKC,0.07,0.0,WeatherDisplay:10.37,2013-09-06 18:17:00,
2013-09-06 20:22:00,65.2,60.2,29.89,WNW,284,3.5,3.5,84,0.00,BKN,SKC,0.07,0.0,WeatherDisplay:10.37,2013-09-06 18:22:00,
2013-09-06 20:27:00,65.1,60.1,29.89,WNW,284,0.0,0.0,84,0.00,BKN,SKC,0.07,0.0,WeatherDisplay:10.37,2013-09-06 18:27:00,
2013-09-06 20:32:00,65.0,60.4,29.89,WNW,284,0.0,0.0,85,0.00,BKN,SKC,0.07,0.0,WeatherDisplay:10.37,2013-09-06 18:32:00,
2013-09-06 20:37:00,65.0,60.4,29.89,WNW,284,1.2,0.0,85,0.00,BKN,SKC,0.07,0.0,WeatherDisplay:10.37,2013-09-06 18:37:00,
2013-09-06 20:42:00,64.8,60.2,29.90,WNW,284,2.3,2.3,85,0.00,BKN,SKC,0.07,0.0,WeatherDisplay:10.37,2013-09-06 18:42:00,
2013-09-06 20:47:00,64.7,60.1,29.90,WNW,284,3.5,3.5,85,0.00,BKN,SKC,0.07,0.0,WeatherDisplay:10.37,2013-09-06 18:47:00,
2013-09-06 20:52:00,64.7,60.4,29.90,WNW,284,3.5,3.5,86,0.00,BKN,SKC,0.07,0.0,WeatherDisplay:10.37,2013-09-06 18:52:00,
2013-09-06 20:57:00,64.7,60.4,29.90,WNW,284,2.3,2.3,86,0.00,BKN,SKC,0.07,0.0,WeatherDisplay:10.37,2013-09-06 18:57:00,
2013-09-06 21:02:00,64.6,60.3,29.90,WNW,284,1.2,1.2,86,0.00,BKN,SKC,0.07,0.0,WeatherDisplay:10.37,2013-09-06 19:02:00,
2013-09-06 21:07:00,64.6,60.3,29.90,WNW,284,2.0,2.0,86,0.00,BKN,SKC,0.07,0.0,WeatherDisplay:10.37,2013-09-06 19:07:00,
2013-09-06 21:12:00,64.5,59.9,29.90,WNW,284,0.0,0.0,85,0.00,BKN,SKC,0.07,0.0,WeatherDisplay:10.37,2013-09-06 19:12:00,
2013-09-06 21:17:00,64.5,59.9,29.90,WNW,284,0.0,0.0,85,0.00,BKN,SKC,0.07,0.0,WeatherDisplay:10.37,2013-09-06 19:17:00,
2013-09-06 21:22:00,64.7,60.4,29.90,WNW,284,0.0,0.0,86,0.00,BKN,SKC,0.07,0.0,WeatherDisplay:10.37,2013-09-06 19:22:00,
2013-09-06 21:27:00,64.5,59.9,29.90,WNW,284,3.5,3.5,85,0.00,BKN,SKC,0.07,0.0,WeatherDisplay:10.37,2013-09-06 19:27:00,
2013-09-06 21:32:00,64.6,60.0,29.90,WNW,284,3.5,3.5,85,0.00,BKN,SKC,0.07,0.0,WeatherDisplay:10.37,2013-09-06 19:32:00,
2013-09-06 21:37:00,64.5,59.9,29.90,WNW,284,3.5,3.5,85,0.00,BKN,SKC,0.07,0.0,WeatherDisplay:10.37,2013-09-06 19:37:00,
2013-09-06 21:42:00,64.5,59.9,29.91,WNW,283,3.5,3.5,85,0.00,BKN,SKC,0.07,0.0,WeatherDisplay:10.37,2013-09-06 19:42:00,
2013-09-06 21:48:00,64.5,60.2,29.91,WNW,283,4.0,4.0,86,0.00,BKN,SKC,0.07,0.0,WeatherDisplay:10.37,2013-09-06 19:48:00,
2013-09-06 21:53:00,64.4,60.4,29.91,West,275,4.6,4.6,87,0.00,BKN,SKC,0.07,0.0,WeatherDisplay:10.37,2013-09-06 19:53:00,
2013-09-06 21:58:00,64.4,60.8,29.91,West,271,6.9,6.9,88,0.00,BKN,SKC,0.07,0.0,WeatherDisplay:10.37,2013-09-06 19:58:00,
2013-09-06 22:03:00,64.4,60.8,29.92,West,269,6.0,6.0,88,0.00,BKN,SKC,0.07,0.0,WeatherDisplay:10.37,2013-09-06 20:03:00,
2013-09-06 22:08:00,64.4,60.8,29.92,West,269,3.5,3.5,88,0.00,BKN,SKC,0.07,0.0,WeatherDisplay:10.37,2013-09-06 20:08:00,
2013-09-06 22:13:00,64.4,61.1,29.91,West,269,1.2,0.0,89,0.00,BKN,SKC,0.07,0.0,WeatherDisplay:10.37,2013-09-06 20:13:00,
2013-09-06 22:18:00,64.5,61.2,29.92,West,269,0.0,0.0,89,0.00,BKN,SKC,0.07,0.0,WeatherDisplay:10.37,2013-09-06 20:18:00,
2013-09-06 22:23:00,64.5,61.2,29.92,West,269,2.3,0.0,89,0.00,BKN,SKC,0.07,0.0,WeatherDisplay:10.37,2013-09-06 20:23:00,
2013-09-06 22:28:00,64.6,61.3,29.91,West,269,0.0,0.0,89,0.00,BKN,SKC,0.07,0.0,WeatherDisplay:10.37,2013-09-06 20:28:00,
2013-09-06 22:33:00,64.6,61.3,29.91,West,269,1.2,0.0,89,0.00,BKN,SKC,0.07,0.0,WeatherDisplay:10.37,2013-09-06 20:33:00,
2013-09-06 22:38:00,64.7,61.4,29.92,West,269,0.0,0.0,89,0.00,BKN,SKC,0.07,0.0,WeatherDisplay:10.37,2013-09-06 20:38:00,
2013-09-06 22:43:00,64.6,61.3,29.92,West,269,4.0,4.1,89,0.00,BKN,SKC,0.07,0.0,WeatherDisplay:10.37,2013-09-06 20:43:00,
2013-09-06 22:48:00,64.6,61.3,29.92,West,269,3.5,3.5,89,0.00,BKN,SKC,0.07,0.0,WeatherDisplay:10.37,2013-09-06 20:48:00,
2013-09-06 22:53:00,64.6,61.3,29.92,West,269,3.5,3.5,89,0.00,BKN,SKC,0.07,0.0,WeatherDisplay:10.37,2013-09-06 20:53:00,
2013-09-06 22:58:00,64.5,61.2,29.92,West,269,2.3,2.3,89,0.00,BKN,SKC,0.07,0.0,WeatherDisplay:10.37,2013-09-06 20:58:00,
2013-09-06 23:03:00,64.5,61.2,29.92,West,269,3.5,3.5,89,0.00,BKN,SKC,0.07,0.0,WeatherDisplay:10.37,2013-09-06 21:03:00,
2013-09-06 23:08:00,64.3,61.0,29.92,West,269,3.5,3.5,89,0.00,BKN,SKC,0.07,0.0,WeatherDisplay:10.37,2013-09-06 21:08:00,
2013-09-06 23:13:00,64.2,60.9,29.92,West,269,2.3,2.3,89,0.00,BKN,SKC,0.07,0.0,WeatherDisplay:10.37,2013-09-06 21:13:00,
2013-09-06 23:18:00,64.1,61.1,29.93,West,269,3.0,3.0,90,0.00,BKN,SKC,0.07,0.0,WeatherDisplay:10.37,2013-09-06 21:18:00,
2013-09-06 23:23:00,64.1,61.1,29.93,West,267,4.0,4.0,90,0.00,BKN,SKC,0.07,0.0,WeatherDisplay:10.37,2013-09-06 21:23:00,
2013-09-06 23:28:00,64.0,61.0,29.93,West,267,3.0,3.0,90,0.00,BKN,SKC,0.07,0.0,WeatherDisplay:10.37,2013-09-06 21:28:00,
2013-09-06 23:33:00,64.0,61.0,29.93,West,267,3.5,3.5,90,0.00,BKN,SKC,0.07,0.0,WeatherDisplay:10.37,2013-09-06 21:33:00,
2013-09-06 23:38:00,63.9,60.9,29.93,West,267,3.5,3.5,90,0.00,BKN,SKC,0.07,0.0,WeatherDisplay:10.37,2013-09-06 21:38:00,
2013-09-06 23:43:00,63.8,60.8,29.93,West,267,3.5,3.5,90,0.00,BKN,SKC,0.07,0.0,WeatherDisplay:10.37,2013-09-06 21:43:00,
2013-09-06 23:48:00,63.8,60.8,29.93,West,267,4.6,4.6,90,0.00,BKN,SKC,0.07,0.0,WeatherDisplay:10.37,2013-09-06 21:48:00,
2013-09-06 23:53:00,63.7,60.7,29.93,West,266,3.5,3.5,90,0.00,BKN,SKC,0.07,0.0,WeatherDisplay:10.37,2013-09-06 21:53:00,
2013-09-06 23:58:00,63.8,60.8,29.94,West,266,3.5,3.5,90,0.00,BKN,SKC,0.07,0.0,WeatherDisplay:10.37,2013-09-06 21:58:00,